sensor_id;sensor_type;location;lat;lon;timestamp;P1;durP1;ratioP1;P2;durP2;ratioP2
59314;SDS011;46521;50.160;20.802;2023-12-14T00:02:04;35.80;;;19.30;;
59314;SDS011;46521;50.160;20.802;2023-12-14T00:12:05;32.20;;;18.20;;
59314;SDS011;46521;50.160;20.802;2023-12-14T00:22:07;33.65;;;17.70;;
59314;SDS011;46521;50.160;20.802;2023-12-14T00:32:08;33.00;;;17.80;;
59314;SDS011;46521;50.160;20.802;2023-12-14T00:42:10;37.00;;;20.65;;
59314;SDS011;46521;50.160;20.802;2023-12-14T00:52:11;39.85;;;21.10;;
59314;SDS011;46521;50.160;20.802;2023-12-14T01:02:12;38.70;;;20.80;;
59314;SDS011;46521;50.160;20.802;2023-12-14T01:12:14;37.35;;;20.60;;
59314;SDS011;46521;50.160;20.802;2023-12-14T01:22:15;41.65;;;21.90;;
59314;SDS011;46521;50.160;20.802;2023-12-14T01:32:17;38.80;;;20.35;;
59314;SDS011;46521;50.160;20.802;2023-12-14T01:42:19;36.30;;;19.90;;
59314;SDS011;46521;50.160;20.802;2023-12-14T01:52:20;40.20;;;21.75;;
59314;SDS011;46521;50.160;20.802;2023-12-14T02:02:22;43.15;;;23.10;;
59314;SDS011;46521;50.160;20.802;2023-12-14T02:12:23;43.50;;;23.95;;
59314;SDS011;46521;50.160;20.802;2023-12-14T02:22:25;40.53;;;23.30;;
59314;SDS011;46521;50.160;20.802;2023-12-14T02:32:27;40.90;;;21.97;;
59314;SDS011;46521;50.160;20.802;2023-12-14T02:42:28;39.25;;;22.90;;
59314;SDS011;46521;50.160;20.802;2023-12-14T02:52:30;39.05;;;21.90;;
59314;SDS011;46521;50.160;20.802;2023-12-14T03:02:32;40.15;;;22.20;;
59314;SDS011;46521;50.160;20.802;2023-12-14T03:12:33;45.40;;;23.63;;
59314;SDS011;46521;50.160;20.802;2023-12-14T03:22:35;47.70;;;23.90;;
59314;SDS011;46521;50.160;20.802;2023-12-14T03:32:36;47.70;;;24.70;;
59314;SDS011;46521;50.160;20.802;2023-12-14T03:42:38;50.70;;;24.90;;
59314;SDS011;46521;50.160;20.802;2023-12-14T03:52:39;49.55;;;24.85;;
59314;SDS011;46521;50.160;20.802;2023-12-14T04:02:41;45.05;;;23.35;;
59314;SDS011;46521;50.160;20.802;2023-12-14T04:12:43;47.55;;;24.80;;
59314;SDS011;46521;50.160;20.802;2023-12-14T04:22:45;50.85;;;25.10;;
59314;SDS011;46521;50.160;20.802;2023-12-14T04:32:46;50.00;;;25.65;;
59314;SDS011;46521;50.160;20.802;2023-12-14T04:42:48;51.25;;;25.20;;
59314;SDS011;46521;50.160;20.802;2023-12-14T04:52:50;49.10;;;22.90;;
59314;SDS011;46521;50.160;20.802;2023-12-14T05:02:51;57.85;;;25.10;;
59314;SDS011;46521;50.160;20.802;2023-12-14T05:12:52;59.70;;;25.25;;
59314;SDS011;46521;50.160;20.802;2023-12-14T05:22:54;56.30;;;25.50;;
59314;SDS011;46521;50.160;20.802;2023-12-14T05:32:56;53.23;;;24.13;;
59314;SDS011;46521;50.160;20.802;2023-12-14T05:42:57;54.90;;;23.83;;
59314;SDS011;46521;50.160;20.802;2023-12-14T05:52:59;48.97;;;24.37;;
59314;SDS011;46521;50.160;20.802;2023-12-14T06:03:00;57.65;;;25.20;;
59314;SDS011;46521;50.160;20.802;2023-12-14T06:13:02;55.90;;;27.15;;
59314;SDS011;46521;50.160;20.802;2023-12-14T06:23:04;57.60;;;27.70;;
59314;SDS011;46521;50.160;20.802;2023-12-14T06:33:05;53.45;;;25.35;;
59314;SDS011;46521;50.160;20.802;2023-12-14T06:43:07;63.85;;;27.55;;
59314;SDS011;46521;50.160;20.802;2023-12-14T06:53:08;52.70;;;27.25;;
59314;SDS011;46521;50.160;20.802;2023-12-14T07:03:09;53.43;;;26.17;;
59314;SDS011;46521;50.160;20.802;2023-12-14T07:13:11;63.10;;;29.43;;
59314;SDS011;46521;50.160;20.802;2023-12-14T07:23:12;63.85;;;32.00;;
59314;SDS011;46521;50.160;20.802;2023-12-14T07:33:14;57.05;;;25.55;;
59314;SDS011;46521;50.160;20.802;2023-12-14T07:43:16;64.60;;;30.40;;
59314;SDS011;46521;50.160;20.802;2023-12-14T07:53:17;72.00;;;35.70;;
59314;SDS011;46521;50.160;20.802;2023-12-14T08:03:19;70.15;;;42.00;;
59314;SDS011;46521;50.160;20.802;2023-12-14T08:13:20;61.90;;;30.50;;
59314;SDS011;46521;50.160;20.802;2023-12-14T08:23:22;63.85;;;34.10;;
59314;SDS011;46521;50.160;20.802;2023-12-14T08:33:24;65.95;;;33.30;;
59314;SDS011;46521;50.160;20.802;2023-12-14T08:43:25;67.60;;;31.35;;
59314;SDS011;46521;50.160;20.802;2023-12-14T08:53:27;53.20;;;26.65;;
59314;SDS011;46521;50.160;20.802;2023-12-14T09:03:30;48.60;;;25.80;;
59314;SDS011;46521;50.160;20.802;2023-12-14T09:13:32;61.35;;;30.50;;
59314;SDS011;46521;50.160;20.802;2023-12-14T09:23:33;63.85;;;37.05;;
59314;SDS011;46521;50.160;20.802;2023-12-14T09:33:35;62.80;;;27.80;;
59314;SDS011;46521;50.160;20.802;2023-12-14T09:43:37;68.05;;;30.40;;
59314;SDS011;46521;50.160;20.802;2023-12-14T09:53:39;67.50;;;29.90;;
59314;SDS011;46521;50.160;20.802;2023-12-14T10:03:40;72.20;;;35.40;;
59314;SDS011;46521;50.160;20.802;2023-12-14T10:13:41;66.00;;;29.20;;
59314;SDS011;46521;50.160;20.802;2023-12-14T10:23:44;85.30;;;39.20;;
59314;SDS011;46521;50.160;20.802;2023-12-14T10:33:47;74.25;;;31.80;;
59314;SDS011;46521;50.160;20.802;2023-12-14T10:43:53;87.10;;;39.60;;
59314;SDS011;46521;50.160;20.802;2023-12-14T10:53:56;64.30;;;28.20;;
59314;SDS011;46521;50.160;20.802;2023-12-14T11:03:59;59.67;;;25.17;;
59314;SDS011;46521;50.160;20.802;2023-12-14T11:14:00;58.10;;;23.15;;
59314;SDS011;46521;50.160;20.802;2023-12-14T11:24:02;57.90;;;24.65;;
59314;SDS011;46521;50.160;20.802;2023-12-14T11:34:04;57.15;;;23.40;;
59314;SDS011;46521;50.160;20.802;2023-12-14T11:44:08;64.70;;;32.85;;
59314;SDS011;46521;50.160;20.802;2023-12-14T11:54:09;88.20;;;34.30;;
59314;SDS011;46521;50.160;20.802;2023-12-14T12:04:10;83.20;;;44.05;;
59314;SDS011;46521;50.160;20.802;2023-12-14T12:14:12;74.10;;;36.30;;
59314;SDS011;46521;50.160;20.802;2023-12-14T12:24:14;72.67;;;40.07;;
59314;SDS011;46521;50.160;20.802;2023-12-14T12:34:16;71.50;;;34.60;;
59314;SDS011;46521;50.160;20.802;2023-12-14T12:44:17;87.65;;;55.05;;
59314;SDS011;46521;50.160;20.802;2023-12-14T12:54:19;61.60;;;28.55;;
59314;SDS011;46521;50.160;20.802;2023-12-14T13:04:21;62.05;;;31.05;;
59314;SDS011;46521;50.160;20.802;2023-12-14T13:14:23;63.50;;;31.55;;
59314;SDS011;46521;50.160;20.802;2023-12-14T13:24:24;61.30;;;30.90;;
59314;SDS011;46521;50.160;20.802;2023-12-14T13:34:26;55.95;;;29.50;;
59314;SDS011;46521;50.160;20.802;2023-12-14T13:44:29;60.15;;;27.70;;
59314;SDS011;46521;50.160;20.802;2023-12-14T13:54:30;56.45;;;30.55;;
59314;SDS011;46521;50.160;20.802;2023-12-14T14:04:33;83.60;;;43.35;;
59314;SDS011;46521;50.160;20.802;2023-12-14T14:14:37;95.73;;;56.33;;
59314;SDS011;46521;50.160;20.802;2023-12-14T14:24:41;71.40;;;35.90;;
59314;SDS011;46521;50.160;20.802;2023-12-14T14:34:43;61.95;;;33.65;;
59314;SDS011;46521;50.160;20.802;2023-12-14T14:44:44;74.30;;;34.70;;
59314;SDS011;46521;50.160;20.802;2023-12-14T14:54:48;72.35;;;37.60;;
59314;SDS011;46521;50.160;20.802;2023-12-14T15:04:54;79.93;;;39.97;;
59314;SDS011;46521;50.160;20.802;2023-12-14T15:14:59;80.15;;;41.60;;
59314;SDS011;46521;50.160;20.802;2023-12-14T15:25:01;62.30;;;36.20;;
59314;SDS011;46521;50.160;20.802;2023-12-14T15:35:10;62.50;;;36.80;;
59314;SDS011;46521;50.160;20.802;2023-12-14T15:45:25;65.05;;;34.80;;
59314;SDS011;46521;50.160;20.802;2023-12-14T15:55:30;64.60;;;35.20;;
59314;SDS011;46521;50.160;20.802;2023-12-14T16:05:39;77.05;;;40.70;;
59314;SDS011;46521;50.160;20.802;2023-12-14T16:15:53;69.70;;;38.85;;
59314;SDS011;46521;50.160;20.802;2023-12-14T16:25:56;61.85;;;34.15;;
59314;SDS011;46521;50.160;20.802;2023-12-14T16:36:24;70.35;;;36.65;;
59314;SDS011;46521;50.160;20.802;2023-12-14T16:46:30;56.00;;;31.90;;
59314;SDS011;46521;50.160;20.802;2023-12-14T16:56:32;58.10;;;31.10;;
59314;SDS011;46521;50.160;20.802;2023-12-14T17:06:37;57.48;;;31.55;;
59314;SDS011;46521;50.160;20.802;2023-12-14T17:17:02;61.00;;;34.20;;
59314;SDS011;46521;50.160;20.802;2023-12-14T17:27:21;58.15;;;32.15;;
59314;SDS011;46521;50.160;20.802;2023-12-14T17:37:27;58.80;;;33.70;;
59314;SDS011;46521;50.160;20.802;2023-12-14T17:47:33;63.95;;;34.45;;
59314;SDS011;46521;50.160;20.802;2023-12-14T17:57:36;59.20;;;32.10;;
59314;SDS011;46521;50.160;20.802;2023-12-14T18:18:25;53.65;;;32.30;;
59314;SDS011;46521;50.160;20.802;2023-12-14T18:28:31;58.20;;;33.70;;
59314;SDS011;46521;50.160;20.802;2023-12-14T18:39:00;54.43;;;32.17;;
59314;SDS011;46521;50.160;20.802;2023-12-14T18:49:24;59.20;;;33.90;;
59314;SDS011;46521;50.160;20.802;2023-12-14T19:21:04;58.85;;;30.05;;
59314;SDS011;46521;50.160;20.802;2023-12-14T19:31:38;48.30;;;27.70;;
59314;SDS011;46521;50.160;20.802;2023-12-14T19:41:39;32.45;;;21.75;;
59314;SDS011;46521;50.160;20.802;2023-12-14T19:51:52;31.10;;;19.65;;
59314;SDS011;46521;50.160;20.802;2023-12-14T20:02:15;30.13;;;18.07;;
59314;SDS011;46521;50.160;20.802;2023-12-14T20:12:28;26.67;;;14.67;;
59314;SDS011;46521;50.160;20.802;2023-12-14T20:22:36;28.00;;;14.80;;
59314;SDS011;46521;50.160;20.802;2023-12-14T20:32:56;33.80;;;20.05;;
59314;SDS011;46521;50.160;20.802;2023-12-14T20:42:58;25.45;;;13.90;;
59314;SDS011;46521;50.160;20.802;2023-12-14T20:53:28;29.70;;;14.57;;
59314;SDS011;46521;50.160;20.802;2023-12-14T21:03:32;26.67;;;14.77;;
59314;SDS011;46521;50.160;20.802;2023-12-14T21:13:40;26.55;;;14.95;;
59314;SDS011;46521;50.160;20.802;2023-12-14T21:23:50;31.85;;;14.95;;
59314;SDS011;46521;50.160;20.802;2023-12-14T21:33:55;31.85;;;13.35;;
59314;SDS011;46521;50.160;20.802;2023-12-14T21:43:56;29.85;;;15.10;;
59314;SDS011;46521;50.160;20.802;2023-12-14T21:54:00;33.25;;;15.95;;
59314;SDS011;46521;50.160;20.802;2023-12-14T22:04:01;29.00;;;14.20;;
59314;SDS011;46521;50.160;20.802;2023-12-14T22:14:04;33.40;;;15.90;;
59314;SDS011;46521;50.160;20.802;2023-12-14T22:24:06;33.65;;;17.05;;
59314;SDS011;46521;50.160;20.802;2023-12-14T22:34:07;34.63;;;16.73;;
59314;SDS011;46521;50.160;20.802;2023-12-14T22:44:09;34.95;;;15.95;;
59314;SDS011;46521;50.160;20.802;2023-12-14T22:54:10;30.20;;;15.30;;
59314;SDS011;46521;50.160;20.802;2023-12-14T23:04:12;29.40;;;15.40;;
59314;SDS011;46521;50.160;20.802;2023-12-14T23:14:14;29.10;;;12.80;;
59314;SDS011;46521;50.160;20.802;2023-12-14T23:24:16;27.03;;;13.33;;
59314;SDS011;46521;50.160;20.802;2023-12-14T23:34:17;30.75;;;15.80;;
59314;SDS011;46521;50.160;20.802;2023-12-14T23:44:19;30.13;;;14.37;;
59314;SDS011;46521;50.160;20.802;2023-12-14T23:54:21;30.00;;;14.10;;
